createdAt,value
2023-05-14T00:01:59.604Z,60.02
2023-05-14T00:07:17.436Z,59.37
2023-05-14T00:09:44.354Z,58.50
2023-05-14T00:12:11.122Z,58.87
2023-05-14T00:14:42.284Z,58.31
2023-05-14T00:17:09.136Z,57.22
2023-05-14T00:19:36.525Z,56.03
2023-05-14T00:22:03.830Z,56.70
2023-05-14T00:24:30.651Z,55.95
2023-05-14T00:26:57.560Z,56.40
2023-05-14T00:29:26.234Z,56.74
2023-05-14T00:31:52.851Z,57.46
2023-05-14T00:34:19.570Z,57.37
2023-05-14T00:36:46.148Z,58.38
2023-05-14T00:39:14.379Z,57.66
2023-05-14T00:41:40.962Z,57.73
2023-05-14T00:44:07.837Z,58.93
2023-05-14T00:46:35.305Z,57.99
2023-05-14T00:49:01.913Z,59.66
2023-05-14T00:51:28.731Z,60.57
2023-05-14T00:53:55.202Z,60.98
2023-05-14T00:56:21.707Z,60.93
2023-05-14T00:58:48.221Z,61.02
2023-05-14T01:01:14.729Z,61.20
2023-05-14T01:03:41.324Z,61.94
2023-05-14T01:06:08.284Z,60.27
2023-05-14T01:08:35.669Z,59.94
2023-05-14T01:11:02.404Z,58.72
2023-05-14T01:13:29.276Z,57.69
2023-05-14T01:15:56.740Z,56.81
2023-05-14T01:18:23.309Z,56.83
2023-05-14T01:20:49.876Z,57.15
2023-05-14T01:23:17.696Z,56.73
2023-05-14T01:25:44.752Z,56.66
2023-05-14T01:28:11.894Z,57.08
2023-05-14T01:30:38.674Z,58.56
2023-05-14T01:33:05.212Z,57.43
2023-05-14T01:35:32.193Z,58.05
2023-05-14T01:37:58.768Z,57.47
2023-05-14T01:40:26.288Z,57.31
2023-05-14T01:42:52.957Z,56.48
2023-05-14T01:45:19.782Z,56.75
2023-05-14T01:47:46.365Z,59.23
2023-05-14T01:53:00.975Z,61.87
2023-05-14T01:55:27.834Z,61.58
2023-05-14T01:57:54.645Z,61.77
2023-05-14T02:00:21.414Z,62.37
2023-05-14T02:02:48.285Z,62.82
2023-05-14T02:05:15.656Z,63.21
2023-05-14T02:07:42.559Z,63.53
2023-05-14T02:10:09.223Z,62.89
2023-05-14T02:12:35.827Z,62.36
2023-05-14T02:15:02.394Z,62.03
2023-05-14T02:17:29.152Z,61.85
2023-05-14T02:19:57.778Z,60.85
2023-05-14T02:22:24.275Z,60.11
2023-05-14T02:24:51.720Z,61.30
2023-05-14T02:27:18.292Z,61.77
2023-05-14T02:29:45.121Z,60.84
2023-05-14T02:32:11.933Z,62.03
2023-05-14T02:34:38.805Z,60.82
2023-05-14T02:37:05.328Z,59.62
2023-05-14T02:39:34.304Z,58.92
2023-05-14T02:42:00.802Z,57.49
2023-05-14T02:44:27.384Z,58.63
2023-05-14T02:46:54.227Z,59.18
2023-05-14T02:49:20.794Z,61.53
2023-05-14T02:51:47.372Z,62.80
2023-05-14T02:54:14.131Z,63.38
2023-05-14T02:56:40.716Z,63.65
2023-05-14T02:59:07.293Z,61.84
2023-05-14T03:01:34.605Z,61.72
2023-05-14T03:04:03.941Z,63.13
2023-05-14T03:06:30.477Z,63.81
2023-05-14T03:08:57.272Z,64.95
2023-05-14T03:11:24.598Z,65.48
2023-05-14T03:13:53.228Z,65.52
2023-05-14T03:16:20.082Z,66.19
2023-05-14T03:18:46.709Z,65.63
2023-05-14T03:21:16.461Z,65.75
2023-05-14T03:23:43.259Z,66.76
2023-05-14T03:26:10.111Z,66.32
2023-05-14T03:31:26.906Z,64.56
2023-05-14T03:33:53.520Z,65.47
2023-05-14T03:36:20.263Z,65.85
2023-05-14T03:38:46.814Z,63.42
2023-05-14T03:41:13.510Z,61.01
2023-05-14T03:43:47.300Z,61.94
2023-05-14T03:46:13.933Z,63.84
2023-05-14T03:48:40.544Z,65.83
2023-05-14T03:51:07.295Z,64.88
2023-05-14T03:53:34.072Z,64.57
2023-05-14T03:56:00.935Z,63.73
2023-05-14T03:58:27.532Z,64.11
2023-05-14T04:00:54.043Z,62.41
2023-05-14T04:03:21.014Z,59.13
2023-05-14T04:05:47.898Z,57.82
2023-05-14T04:08:14.746Z,58.31
2023-05-14T04:10:41.281Z,56.78
2023-05-14T04:13:08.140Z,55.50
2023-05-14T04:15:35.523Z,55.29
2023-05-14T04:18:02.071Z,57.17
2023-05-14T04:20:28.881Z,57.39
2023-05-14T04:22:55.672Z,60.92
2023-05-14T04:25:22.280Z,59.98
2023-05-14T04:27:48.814Z,60.57
2023-05-14T04:30:16.194Z,62.23
2023-05-14T04:32:43.064Z,60.96
2023-05-14T04:35:09.610Z,64.16
2023-05-14T04:37:36.439Z,64.84
2023-05-14T04:40:04.707Z,66.07
2023-05-14T04:42:31.859Z,66.23
2023-05-14T04:44:58.606Z,67.69
2023-05-14T04:47:25.210Z,67.11
2023-05-14T04:49:52.071Z,68.42
2023-05-14T04:52:18.952Z,68.86
2023-05-14T04:54:45.872Z,68.40
2023-05-14T04:57:12.640Z,68.85
2023-05-14T04:59:39.499Z,68.06
2023-05-14T05:02:06.097Z,67.55
2023-05-14T05:04:32.691Z,67.42
2023-05-14T05:06:59.518Z,67.68
2023-05-14T05:09:26.020Z,67.25
2023-05-14T05:11:52.940Z,66.36
2023-05-14T05:14:19.874Z,65.76
2023-05-14T05:16:46.357Z,64.92
2023-05-14T05:19:15.392Z,64.34
2023-05-14T05:21:43.056Z,65.96
2023-05-14T05:24:09.975Z,65.23
2023-05-14T05:26:36.773Z,64.89
2023-05-14T05:29:03.864Z,64.99
2023-05-14T05:31:31.514Z,65.65
2023-05-14T05:36:54.052Z,61.12
2023-05-14T05:39:20.584Z,59.12
2023-05-14T05:44:59.145Z,56.01
2023-05-14T05:47:26.557Z,55.00
2023-05-14T05:49:53.360Z,54.54
2023-05-14T05:52:20.980Z,53.77
2023-05-14T05:54:47.529Z,54.01
2023-05-14T05:57:14.038Z,54.07
2023-05-14T05:59:40.845Z,53.67
2023-05-14T06:02:08.127Z,53.17
2023-05-14T06:04:34.775Z,52.51
2023-05-14T06:07:01.329Z,52.26
2023-05-14T06:09:28.201Z,52.63
2023-05-14T06:11:55.086Z,52.53
2023-05-14T06:14:21.631Z,51.81
2023-05-14T06:16:48.780Z,51.70
2023-05-14T06:19:15.445Z,51.24
2023-05-14T06:21:43.834Z,54.12
2023-05-14T06:24:11.152Z,53.29
2023-05-14T06:26:37.954Z,56.83
2023-05-14T06:29:04.703Z,58.58
2023-05-14T06:31:33.470Z,58.57
2023-05-14T06:34:00.290Z,58.57
2023-05-14T06:36:26.744Z,58.96
2023-05-14T06:42:03.877Z,60.48
2023-05-14T06:44:31.211Z,58.52
2023-05-14T06:46:57.770Z,59.68
2023-05-14T06:49:25.328Z,59.01
2023-05-14T06:51:51.815Z,57.49
2023-05-14T06:54:18.583Z,55.74
2023-05-14T06:56:46.522Z,54.76
2023-05-14T06:59:14.090Z,55.52
2023-05-14T07:01:40.614Z,57.08
2023-05-14T07:04:07.690Z,56.54
2023-05-14T07:06:34.393Z,57.49
2023-05-14T07:09:01.247Z,55.16
2023-05-14T07:11:27.753Z,53.40
2023-05-14T07:13:56.687Z,53.09
2023-05-14T07:16:23.535Z,52.63
2023-05-14T07:18:50.958Z,51.94
2023-05-14T07:21:17.465Z,50.89
2023-05-14T07:23:44.274Z,50.27
2023-05-14T07:26:10.807Z,51.26
2023-05-14T07:28:37.457Z,52.33
2023-05-14T07:31:04.043Z,51.24
2023-05-14T07:33:32.385Z,50.52
2023-05-14T07:35:59.208Z,52.46
2023-05-14T07:38:25.781Z,54.08
2023-05-14T07:40:54.678Z,51.75
2023-05-14T07:43:21.231Z,51.59
2023-05-14T07:45:47.930Z,49.86
2023-05-14T07:48:14.890Z,48.47
2023-05-14T07:50:41.857Z,47.99
2023-05-14T07:53:08.390Z,47.08
2023-05-14T07:55:37.737Z,46.41
2023-05-14T07:58:04.274Z,46.87
2023-05-14T08:00:31.554Z,46.24
2023-05-14T08:02:58.723Z,45.54
2023-05-14T08:05:27.509Z,45.41
2023-05-14T08:07:54.502Z,44.20
2023-05-14T08:10:21.537Z,44.34
2023-05-14T08:12:48.200Z,43.18
2023-05-14T08:15:16.358Z,44.03
2023-05-14T08:17:42.825Z,47.06
2023-05-14T08:20:09.347Z,45.07
2023-05-14T08:22:36.409Z,47.96
2023-05-14T08:25:03.062Z,47.92
2023-05-14T08:27:29.854Z,47.85
2023-05-14T08:29:56.351Z,45.93
2023-05-14T08:32:24.047Z,46.04
2023-05-14T08:34:53.223Z,45.59
2023-05-14T08:37:19.957Z,45.06
2023-05-14T08:39:46.767Z,45.72
2023-05-14T08:42:13.505Z,46.36
2023-05-14T08:44:40.109Z,44.88
2023-05-14T08:47:06.578Z,43.94
2023-05-14T08:49:33.290Z,41.66
2023-05-14T08:52:00.261Z,41.45
2023-05-14T08:54:27.282Z,40.48
2023-05-14T08:56:53.853Z,43.19
2023-05-14T08:59:22.749Z,42.70
2023-05-14T09:01:49.626Z,42.29
2023-05-14T09:04:16.203Z,40.83
2023-05-14T09:06:42.905Z,39.32
2023-05-14T09:09:09.372Z,38.52
2023-05-14T09:11:35.942Z,39.04
2023-05-14T09:14:02.585Z,42.09
2023-05-14T09:16:29.142Z,40.59
2023-05-14T09:18:57.094Z,39.49
2023-05-14T09:21:25.836Z,39.23
2023-05-14T09:23:52.748Z,40.93
2023-05-14T09:26:19.317Z,40.36
2023-05-14T09:28:45.945Z,39.70
2023-05-14T09:31:12.812Z,37.54
2023-05-14T09:33:39.339Z,39.20
2023-05-14T09:36:06.105Z,39.90
2023-05-14T09:38:32.619Z,38.63
2023-05-14T09:41:01.198Z,39.21
2023-05-14T09:43:30.184Z,41.62
2023-05-14T09:45:59.892Z,43.94
2023-05-14T09:50:57.037Z,42.80
2023-05-14T09:53:24.691Z,43.31
2023-05-14T09:55:53.034Z,43.79
2023-05-14T09:58:20.300Z,42.50
2023-05-14T10:00:47.101Z,43.05
2023-05-14T10:03:15.278Z,43.14
2023-05-14T10:05:43.160Z,43.15
2023-05-14T10:08:12.059Z,42.76
2023-05-14T10:10:38.829Z,42.43
2023-05-14T10:13:06.203Z,43.66
2023-05-14T10:15:32.761Z,43.48
2023-05-14T10:17:59.835Z,43.10
2023-05-14T10:20:26.740Z,42.41
2023-05-14T10:22:56.463Z,43.05
2023-05-14T10:25:23.333Z,43.37
2023-05-14T10:27:53.189Z,43.25
2023-05-14T10:30:20.034Z,43.41
2023-05-14T10:32:54.121Z,43.34
2023-05-14T10:35:21.050Z,43.31
2023-05-14T10:37:54.880Z,42.94
2023-05-14T10:40:22.576Z,42.98
2023-05-14T10:42:56.319Z,42.41
2023-05-14T10:45:23.359Z,42.31
2023-05-14T10:47:50.308Z,43.50
2023-05-14T10:50:16.891Z,43.65
2023-05-14T10:52:43.694Z,42.82
2023-05-14T10:55:11.592Z,42.25
2023-05-14T10:57:45.627Z,41.45
2023-05-14T11:00:15.400Z,43.27
2023-05-14T11:09:12.663Z,40.53
2023-05-14T11:11:39.703Z,40.65
2023-05-14T11:14:08.423Z,40.38
2023-05-14T11:19:21.172Z,40.49
2023-05-14T11:21:49.618Z,40.29
2023-05-14T11:24:16.260Z,40.58
2023-05-14T11:26:42.798Z,38.68
2023-05-14T11:29:09.817Z,40.31
2023-05-14T11:31:36.618Z,39.83
2023-05-14T11:34:03.369Z,40.42
2023-05-14T11:36:30.971Z,42.48
2023-05-14T11:38:57.844Z,41.64
2023-05-14T11:41:24.454Z,40.13
2023-05-14T11:43:50.991Z,43.73
2023-05-14T11:46:18.679Z,42.08
2023-05-14T11:48:45.458Z,40.89
2023-05-14T11:51:12.283Z,40.38
2023-05-14T11:53:39.092Z,40.37
2023-05-14T11:56:07.153Z,40.76
2023-05-14T11:58:35.862Z,41.18
2023-05-14T12:01:02.623Z,39.92
2023-05-14T12:03:29.416Z,40.52
2023-05-14T12:05:56.505Z,42.50
2023-05-14T12:08:24.027Z,42.19
2023-05-14T12:10:50.733Z,42.42
2023-05-14T12:13:17.638Z,41.51
2023-05-14T12:15:44.321Z,39.99
2023-05-14T12:18:23.393Z,38.87
2023-05-14T12:20:50.642Z,37.72
2023-05-14T12:23:17.535Z,39.35
2023-05-14T12:25:44.313Z,40.94
2023-05-14T12:28:10.963Z,41.10
2023-05-14T12:30:37.519Z,40.85
2023-05-14T12:33:04.917Z,41.88
2023-05-14T12:35:33.749Z,48.16
2023-05-14T12:38:00.306Z,52.58
2023-05-14T12:40:27.098Z,52.04
2023-05-14T12:42:56.587Z,51.95
2023-05-14T12:45:27.878Z,51.60
2023-05-14T12:47:54.617Z,50.85
2023-05-14T12:50:21.730Z,46.06
2023-05-14T12:52:48.303Z,48.46
2023-05-14T12:55:14.840Z,48.42
2023-05-14T12:57:45.075Z,45.81
2023-05-14T13:00:21.231Z,44.64
2023-05-14T13:02:47.820Z,43.97
2023-05-14T13:05:14.463Z,43.09
2023-05-14T13:07:41.208Z,39.75
2023-05-14T13:10:07.920Z,38.67
2023-05-14T13:12:34.450Z,38.38
2023-05-14T13:15:01.345Z,40.87
2023-05-14T13:17:27.993Z,39.99
2023-05-14T13:19:57.208Z,40.58
2023-05-14T13:22:23.978Z,37.35
2023-05-14T13:24:50.596Z,36.37
2023-05-14T13:27:20.643Z,36.67
2023-05-14T13:29:48.092Z,35.04
2023-05-14T13:32:15.367Z,36.47
2023-05-14T13:34:41.939Z,37.71
2023-05-14T13:37:08.959Z,38.04
2023-05-14T13:39:35.506Z,36.84
2023-05-14T13:42:09.688Z,36.53
2023-05-14T13:45:09.933Z,37.91
2023-05-14T13:47:36.654Z,38.25
2023-05-14T13:50:03.290Z,37.98
2023-05-14T13:52:30.220Z,36.56
2023-05-14T13:54:57.037Z,37.50
2023-05-14T13:57:24.178Z,36.90
2023-05-14T13:59:51.010Z,35.87
2023-05-14T14:02:18.417Z,35.27
2023-05-14T14:04:45.884Z,36.07
2023-05-14T14:07:12.713Z,35.88
2023-05-14T14:09:39.606Z,35.81
2023-05-14T14:12:06.586Z,36.44
2023-05-14T14:14:33.162Z,36.57
2023-05-14T14:17:00.111Z,37.22
2023-05-14T14:19:27.663Z,37.65
2023-05-14T14:21:54.311Z,36.86
2023-05-14T14:24:22.152Z,37.05
2023-05-14T14:26:49.489Z,36.27
2023-05-14T14:29:16.131Z,35.48
2023-05-14T14:31:42.688Z,36.60
2023-05-14T14:34:09.206Z,37.35
2023-05-14T14:36:38.203Z,38.98
2023-05-14T14:39:07.195Z,38.26
2023-05-14T14:41:33.993Z,37.50
2023-05-14T14:44:00.635Z,36.30
2023-05-14T14:46:28.999Z,35.40
2023-05-14T14:51:47.671Z,37.86
2023-05-14T14:54:14.439Z,37.97
2023-05-14T14:56:41.014Z,37.59
2023-05-14T14:59:07.596Z,37.22
2023-05-14T15:01:34.910Z,38.58
2023-05-14T15:04:02.224Z,38.38
2023-05-14T15:06:29.049Z,37.91
2023-05-14T15:08:55.867Z,36.31
2023-05-14T15:11:22.526Z,36.52
2023-05-14T15:13:51.806Z,35.35
2023-05-14T15:16:18.708Z,36.34
2023-05-14T15:18:45.578Z,36.98
2023-05-14T15:21:12.316Z,34.73
2023-05-14T15:23:39.093Z,35.25
2023-05-14T15:26:06.360Z,36.56
2023-05-14T15:28:34.066Z,35.90
2023-05-14T15:31:00.713Z,35.79
2023-05-14T15:33:28.059Z,35.41
2023-05-14T15:35:55.457Z,35.04
2023-05-14T15:38:22.035Z,34.49
2023-05-14T15:40:48.637Z,35.89
2023-05-14T15:43:15.172Z,36.36
2023-05-14T15:45:41.801Z,36.92
2023-05-14T15:48:08.508Z,38.03
2023-05-14T15:50:35.106Z,39.85
2023-05-14T15:55:54.707Z,40.16
2023-05-14T16:25:03.393Z,43.17
2023-05-14T16:27:30.602Z,42.18
2023-05-14T16:29:59.485Z,43.72
2023-05-14T16:32:26.446Z,42.98
2023-05-14T16:34:52.998Z,42.30
2023-05-14T16:37:19.657Z,42.83
2023-05-14T16:39:46.186Z,41.13
2023-05-14T16:42:13.699Z,42.62
2023-05-14T16:44:40.332Z,45.09
2023-05-14T16:47:06.919Z,48.88
2023-05-14T16:49:33.522Z,51.26
2023-05-14T16:52:00.148Z,51.28
2023-05-14T16:54:26.766Z,47.71
2023-05-14T16:56:56.185Z,50.62
2023-05-14T16:59:25.112Z,52.72
2023-05-14T17:01:55.722Z,54.59
2023-05-14T17:04:22.768Z,55.60
2023-05-14T17:06:49.371Z,56.07
2023-05-14T17:09:16.185Z,55.13
2023-05-14T17:11:43.047Z,54.20
2023-05-14T17:14:09.770Z,52.73
2023-05-14T17:16:36.685Z,52.97
2023-05-14T17:19:03.469Z,53.64
2023-05-14T17:21:30.410Z,54.65
2023-05-14T17:23:57.269Z,54.24
2023-05-14T17:26:24.198Z,52.67
2023-05-14T17:28:52.669Z,53.51
2023-05-14T17:33:49.618Z,53.14
2023-05-14T17:36:17.054Z,52.74
2023-05-14T17:38:45.486Z,52.84
2023-05-14T17:41:12.167Z,53.19
2023-05-14T17:43:38.909Z,54.25
2023-05-14T17:46:07.864Z,54.14
2023-05-14T17:48:38.458Z,54.07
2023-05-14T17:51:07.516Z,54.03
2023-05-14T17:53:34.410Z,53.86
2023-05-14T17:56:03.985Z,53.57
2023-05-14T18:01:02.816Z,54.97
2023-05-14T18:03:29.707Z,54.88
2023-05-14T18:05:56.279Z,55.56
2023-05-14T18:08:28.033Z,54.35
2023-05-14T18:10:54.760Z,54.46
2023-05-14T18:13:21.675Z,54.78
2023-05-14T18:15:48.437Z,54.45
2023-05-14T18:21:02.373Z,53.85
2023-05-14T18:23:29.307Z,53.12
2023-05-14T18:25:58.341Z,51.30
2023-05-14T18:31:15.854Z,52.79
2023-05-14T18:33:44.425Z,52.23
2023-05-14T18:36:11.960Z,53.13
2023-05-14T18:38:39.115Z,53.48
2023-05-14T18:41:06.008Z,54.79
2023-05-14T18:43:33.035Z,55.44
2023-05-14T18:46:04.604Z,55.51
2023-05-14T18:51:31.225Z,57.08
2023-05-14T18:53:59.651Z,58.34
2023-05-14T18:56:26.512Z,58.58
2023-05-14T18:58:54.089Z,59.53
2023-05-14T19:01:21.542Z,60.56
2023-05-14T19:03:53.363Z,62.09
2023-05-14T19:06:20.130Z,62.90
2023-05-14T19:08:47.051Z,66.10
2023-05-14T19:14:10.161Z,72.40
2023-05-14T19:16:36.905Z,72.42
2023-05-14T19:19:05.810Z,73.55
2023-05-14T19:21:32.742Z,74.61
2023-05-14T19:23:59.420Z,77.01
2023-05-14T19:26:26.523Z,76.24
2023-05-14T19:28:54.557Z,78.21
2023-05-14T19:31:21.615Z,77.08
2023-05-14T19:33:49.656Z,80.95
2023-05-14T19:36:18.710Z,82.69
2023-05-14T19:38:45.651Z,81.55
2023-05-14T19:41:14.092Z,83.04
2023-05-14T19:43:41.308Z,82.79
2023-05-14T19:46:08.633Z,82.05
2023-05-14T19:51:21.394Z,80.67
2023-05-14T19:53:48.455Z,79.28
2023-05-14T19:56:15.253Z,76.59
2023-05-14T19:58:42.154Z,76.78
2023-05-14T20:01:11.094Z,77.88
2023-05-14T20:03:40.959Z,74.41
2023-05-14T20:06:11.793Z,72.52
2023-05-14T20:08:41.244Z,74.04
2023-05-14T20:11:08.514Z,73.15
2023-05-14T20:13:36.495Z,71.43
2023-05-14T20:16:03.275Z,68.74
2023-05-14T20:18:29.965Z,69.79
2023-05-14T20:20:56.705Z,68.43
2023-05-14T20:23:24.313Z,66.49
2023-05-14T20:25:54.849Z,66.67
2023-05-14T20:28:22.300Z,68.08
2023-05-14T20:30:49.012Z,67.85
2023-05-14T20:33:16.817Z,66.13
2023-05-14T20:35:46.493Z,66.40
2023-05-14T20:38:15.181Z,63.73
2023-05-14T20:40:44.274Z,65.23
2023-05-14T20:43:11.230Z,68.21
2023-05-14T20:45:38.878Z,64.96
2023-05-14T20:48:05.626Z,65.23
2023-05-14T20:50:32.225Z,65.02
2023-05-14T20:53:00.106Z,63.71
2023-05-14T20:55:27.609Z,62.34
2023-05-14T20:57:55.187Z,60.38
2023-05-14T21:00:22.070Z,65.50
2023-05-14T21:02:50.871Z,65.62
2023-05-14T21:05:17.571Z,62.76
2023-05-14T21:07:45.807Z,61.59
2023-05-14T21:10:12.392Z,60.76
2023-05-14T21:12:39.373Z,61.91
2023-05-14T21:15:06.526Z,63.12
2023-05-14T21:17:33.327Z,62.55
2023-05-14T21:19:59.950Z,61.86
2023-05-14T21:22:26.622Z,62.71
2023-05-14T21:24:55.589Z,62.65
2023-05-14T21:27:24.216Z,61.65
2023-05-14T21:29:51.009Z,61.81
2023-05-14T21:32:17.489Z,62.65
2023-05-14T21:34:44.353Z,63.71
2023-05-14T21:37:11.121Z,64.24
2023-05-14T21:39:38.772Z,64.31
2023-05-14T21:42:07.939Z,66.80
2023-05-14T21:44:34.851Z,65.95
2023-05-14T21:47:01.393Z,65.60
2023-05-14T21:49:28.261Z,65.68
2023-05-14T21:51:57.018Z,65.28
2023-05-14T21:54:23.815Z,66.94
2023-05-14T21:56:51.378Z,69.15
2023-05-14T21:59:18.212Z,67.75
2023-05-14T22:04:14.353Z,67.89
2023-05-14T22:06:41.129Z,66.80
2023-05-14T22:09:07.698Z,66.51
2023-05-14T22:11:43.946Z,67.43
2023-05-14T22:14:27.010Z,68.33
2023-05-14T22:16:53.563Z,68.66
2023-05-14T22:19:20.975Z,67.28
2023-05-14T22:21:47.479Z,65.80
2023-05-14T22:24:14.332Z,62.37
2023-05-14T22:26:42.910Z,60.89
2023-05-14T22:29:10.816Z,58.99
2023-05-14T22:31:37.578Z,57.35
2023-05-14T22:34:05.104Z,59.52
2023-05-14T22:36:31.734Z,58.88
2023-05-14T22:38:58.594Z,59.21
2023-05-14T22:41:26.173Z,59.32
2023-05-14T22:43:53.572Z,57.90
2023-05-14T22:46:20.188Z,58.58
2023-05-14T22:48:46.773Z,58.90
2023-05-14T22:51:13.279Z,57.73
2023-05-14T22:53:41.037Z,59.09
2023-05-14T22:56:07.547Z,58.35
2023-05-14T22:58:35.068Z,58.53
2023-05-14T23:01:02.351Z,60.80
2023-05-14T23:03:29.160Z,59.48
2023-05-14T23:05:55.667Z,58.74
2023-05-14T23:08:24.520Z,57.23
2023-05-14T23:10:52.908Z,56.51
2023-05-14T23:13:19.383Z,57.05
2023-05-14T23:15:45.901Z,56.68
2023-05-14T23:18:13.127Z,56.05
2023-05-14T23:20:39.935Z,55.65
2023-05-14T23:23:06.778Z,56.48
2023-05-14T23:25:33.385Z,56.00
2023-05-14T23:28:00.248Z,55.64
2023-05-14T23:30:27.011Z,57.44
2023-05-14T23:32:53.543Z,57.66
2023-05-14T23:35:20.355Z,59.07
2023-05-14T23:37:47.389Z,63.34
2023-05-14T23:40:14.075Z,61.94
2023-05-14T23:42:41.159Z,61.48
2023-05-14T23:45:08.623Z,60.12
2023-05-14T23:47:35.582Z,59.92
2023-05-14T23:50:02.114Z,58.26
2023-05-14T23:52:28.694Z,58.88
2023-05-14T23:54:55.256Z,58.87
2023-05-14T23:57:22.548Z,59.70
